Time;durP1;ratioP1;P1;durP2;ratioP2;P2;SDS_P1;SDS_P2;PMS_P1;PMS_P2;Temp;Humidity;BMP_temperature;BMP_pressure;BME280_temperature;BME280_humidity;BME280_pressure;Samples;Min_cycle;Max_cycle;Signal;HPM_P1;HPM_P2
2022/05/04 00:01:38;;;;;;;0.40;0.20;;;10.00;99.90;;;;;;4991444;28;20422;-69
2022/05/04 00:04:05;;;;;;;0.40;0.20;;;9.90;99.90;;;;;;4990562;28;20937;-68
2022/05/04 00:06:31;;;;;;;0.40;0.30;;;9.80;99.90;;;;;;4990697;28;20874;-69
2022/05/04 00:08:56;;;;;;;0.50;0.50;;;9.80;99.90;;;;;;4990429;28;20461;-69
2022/05/04 00:11:22;;;;;;;0.40;0.20;;;9.90;99.90;;;;;;4990569;28;20394;-69
2022/05/04 00:13:48;;;;;;;0.40;0.20;;;9.90;99.90;;;;;;4990998;28;20391;-69
2022/05/04 00:16:13;;;;;;;0.40;0.20;;;9.90;99.90;;;;;;4991955;28;20401;-68
2022/05/04 00:18:39;;;;;;;0.40;0.40;;;9.90;99.90;;;;;;4994707;28;20458;-69
2022/05/04 00:21:07;;;;;;;0.40;0.20;;;9.90;99.90;;;;;;4994019;28;20453;-69
2022/05/04 00:23:33;;;;;;;0.70;0.60;;;9.90;99.90;;;;;;4995024;28;20418;-69
2022/05/04 00:25:59;;;;;;;0.40;0.20;;;9.90;99.90;;;;;;4993882;28;20433;-69
2022/05/04 00:28:24;;;;;;;0.50;0.50;;;9.90;99.90;;;;;;4994682;28;20456;-69
2022/05/04 00:30:50;;;;;;;0.90;0.80;;;9.90;99.90;;;;;;4995157;28;20387;-69
2022/05/04 00:33:16;;;;;;;0.40;0.20;;;9.70;99.90;;;;;;4994019;28;21284;-69
2022/05/04 00:35:41;;;;;;;0.40;0.40;;;9.70;99.90;;;;;;4994388;28;20431;-69
2022/05/04 00:38:07;;;;;;;0.70;0.70;;;9.60;99.90;;;;;;4993429;28;20429;-69
2022/05/04 00:40:33;;;;;;;0.40;0.20;;;9.60;99.90;;;;;;4994478;28;20418;-67
2022/05/04 00:42:59;;;;;;;0.43;0.40;;;9.50;99.90;;;;;;4994142;28;20401;-68
2022/05/04 00:45:25;;;;;;;0.40;0.20;;;9.50;99.90;;;;;;4993972;28;20414;-68
2022/05/04 00:47:50;;;;;;;0.40;0.20;;;9.50;99.90;;;;;;4994774;28;20398;-68
2022/05/04 00:50:16;;;;;;;0.40;0.20;;;9.40;99.90;;;;;;4993370;28;20866;-68
2022/05/04 00:52:44;;;;;;;0.40;0.28;;;9.30;99.90;;;;;;4992666;28;20398;-68
2022/05/04 00:55:11;;;;;;;0.40;0.30;;;9.30;99.90;;;;;;4992527;28;20910;-68
2022/05/04 01:00:23;;;;;;;0.40;0.40;;;9.30;99.90;;;;;;4993432;28;20473;-67
2022/05/04 01:02:49;;;;;;;0.40;0.20;;;9.20;99.90;;;;;;4993777;28;20485;-68
2022/05/04 01:05:15;;;;;;;0.40;0.20;;;9.20;99.90;;;;;;4993271;28;20474;-67
2022/05/04 01:07:42;;;;;;;0.50;0.50;;;9.20;99.90;;;;;;4988561;28;20396;-68
2022/05/04 01:10:09;;;;;;;0.40;0.20;;;9.20;99.90;;;;;;4987588;28;20417;-68
2022/05/04 01:12:36;;;;;;;0.40;0.20;;;9.20;99.90;;;;;;4994212;28;20394;-68
2022/05/04 01:15:03;;;;;;;0.40;0.20;;;9.20;99.90;;;;;;4984152;28;20915;-67
2022/05/04 01:17:29;;;;;;;0.40;0.30;;;9.20;99.90;;;;;;4974499;28;20797;-68
2022/05/04 01:19:55;;;;;;;0.40;0.30;;;9.10;99.90;;;;;;4993549;28;20441;-68
2022/05/04 01:22:24;;;;;;;0.40;0.20;;;9.20;99.90;;;;;;4991572;28;20399;-68
2022/05/04 01:24:51;;;;;;;0.40;0.20;;;9.00;99.90;;;;;;4965592;28;20434;-68
2022/05/04 01:27:17;;;;;;;0.40;0.30;;;9.20;99.90;;;;;;4983540;28;20402;-68
2022/05/04 01:29:42;;;;;;;0.63;0.63;;;9.10;99.90;;;;;;4993597;28;20413;-69
2022/05/04 01:32:09;;;;;;;0.40;0.20;;;9.00;99.90;;;;;;4982751;28;20388;-67
2022/05/04 01:34:34;;;;;;;0.40;0.20;;;8.90;99.90;;;;;;4974304;28;20464;-68
2022/05/04 01:37:03;;;;;;;0.40;0.20;;;9.00;99.90;;;;;;4975763;28;20484;-68
2022/05/04 01:39:29;;;;;;;0.40;0.20;;;9.00;99.90;;;;;;4990252;28;20882;-69
2022/05/04 01:42:05;;;;;;;0.40;0.22;;;9.10;99.90;;;;;;4992126;28;20389;-68
2022/05/04 01:44:32;;;;;;;0.82;0.82;;;9.00;99.90;;;;;;4993736;28;20394;-68
2022/05/04 01:46:59;;;;;;;0.40;0.30;;;8.90;99.90;;;;;;4990302;28;20391;-68
2022/05/04 01:49:24;;;;;;;0.40;0.20;;;8.90;99.90;;;;;;4973235;28;20408;-68
2022/05/04 01:51:50;;;;;;;0.40;0.30;;;9.00;99.90;;;;;;4974206;28;20383;-68
2022/05/04 01:54:16;;;;;;;0.40;0.20;;;9.10;99.90;;;;;;4972770;28;20392;-67
2022/05/04 01:56:42;;;;;;;1.90;0.70;;;9.10;99.90;;;;;;4986681;28;20491;-68
2022/05/04 01:59:07;;;;;;;0.40;0.30;;;9.10;99.90;;;;;;4991845;28;20468;-67
2022/05/04 02:01:34;;;;;;;0.40;0.20;;;9.10;99.90;;;;;;4993176;28;20409;-68
2022/05/04 02:04:00;;;;;;;0.40;0.20;;;9.10;99.90;;;;;;4992998;28;20862;-67
2022/05/04 02:06:27;;;;;;;0.40;0.20;;;9.00;99.90;;;;;;4988965;28;20391;-68
2022/05/04 02:08:53;;;;;;;0.40;0.30;;;9.10;99.90;;;;;;4994233;28;20396;-68
2022/05/04 02:11:19;;;;;;;0.40;0.20;;;9.20;99.90;;;;;;5011687;28;20387;-67
2022/05/04 02:13:45;;;;;;;0.40;0.20;;;9.30;99.90;;;;;;5002269;28;20528;-67
2022/05/04 02:16:11;;;;;;;0.40;0.20;;;9.30;99.90;;;;;;4991764;28;20414;-67
2022/05/04 02:18:36;;;;;;;0.40;0.20;;;9.30;99.90;;;;;;5007435;28;20421;-67
2022/05/04 02:21:02;;;;;;;0.40;0.20;;;9.40;99.90;;;;;;4992877;28;20478;-67
2022/05/04 02:23:28;;;;;;;0.40;0.20;;;9.30;99.90;;;;;;4991918;28;20379;-68
2022/05/04 02:25:54;;;;;;;0.40;0.30;;;9.30;99.90;;;;;;4992103;28;20894;-67
2022/05/04 02:28:20;;;;;;;0.40;0.30;;;9.30;99.90;;;;;;4991709;28;20787;-67
2022/05/04 02:30:47;;;;;;;0.40;0.20;;;9.30;99.90;;;;;;4991809;28;20394;-67
2022/05/04 02:33:14;;;;;;;0.40;0.20;;;9.10;99.90;;;;;;4991088;28;20402;-67
2022/05/04 02:38:29;;;;;;;0.40;0.20;;;9.10;99.90;;;;;;4991011;28;20445;-68
2022/05/04 02:40:55;;;;;;;0.40;0.20;;;9.20;99.90;;;;;;4991874;28;20387;-67
2022/05/04 02:43:21;;;;;;;0.40;0.20;;;9.20;99.90;;;;;;4991738;28;20750;-67
2022/05/04 02:45:47;;;;;;;0.60;0.60;;;9.20;99.90;;;;;;4992232;28;20399;-68
2022/05/04 02:48:13;;;;;;;0.40;0.20;;;9.10;99.90;;;;;;4991467;28;20398;-67
2022/05/04 02:50:39;;;;;;;0.40;0.20;;;9.10;99.90;;;;;;4992356;28;20746;-67
2022/05/04 02:53:05;;;;;;;0.40;0.30;;;9.10;99.90;;;;;;4991995;28;20395;-68
2022/05/04 02:55:34;;;;;;;0.40;0.20;;;9.00;99.90;;;;;;4991175;28;20411;-68
2022/05/04 02:58:00;;;;;;;0.40;0.28;;;9.00;99.90;;;;;;4991631;28;20395;-67
2022/05/04 03:00:26;;;;;;;0.40;0.30;;;8.80;99.90;;;;;;4990421;28;20422;-67
2022/05/04 03:02:54;;;;;;;0.40;0.20;;;8.90;99.90;;;;;;4992259;28;20469;-68
2022/05/04 03:05:20;;;;;;;0.40;0.20;;;8.80;99.90;;;;;;4990260;28;20434;-67
2022/05/04 03:07:46;;;;;;;0.40;0.20;;;8.80;99.90;;;;;;4992053;28;20402;-67
2022/05/04 03:10:16;;;;;;;0.40;0.20;;;8.70;99.90;;;;;;4990902;28;20402;-67
2022/05/04 03:12:42;;;;;;;0.40;0.20;;;8.60;99.90;;;;;;4992052;28;20794;-67
2022/05/04 03:15:08;;;;;;;0.40;0.20;;;8.60;99.90;;;;;;4991168;28;20403;-67
2022/05/04 03:17:35;;;;;;;0.40;0.20;;;8.60;99.90;;;;;;4992053;28;20382;-67
2022/05/04 03:20:01;;;;;;;0.40;0.20;;;8.60;99.90;;;;;;4985612;28;20875;-67
2022/05/04 03:22:27;;;;;;;0.40;0.20;;;8.50;99.90;;;;;;4990872;28;20413;-68
2022/05/04 03:24:53;;;;;;;0.40;0.30;;;8.50;99.90;;;;;;5001316;28;20406;-67
2022/05/04 03:27:19;;;;;;;0.40;0.38;;;8.50;99.90;;;;;;4985858;28;20380;-68
2022/05/04 03:29:45;;;;;;;0.40;0.20;;;8.40;99.90;;;;;;4985989;28;20390;-68
2022/05/04 03:32:10;;;;;;;0.40;0.20;;;8.40;99.90;;;;;;4981540;28;20402;-67
2022/05/04 03:34:36;;;;;;;0.90;0.70;;;8.40;99.90;;;;;;4983488;28;20736;-67
2022/05/04 03:37:03;;;;;;;0.40;0.20;;;8.40;99.90;;;;;;4990408;28;20390;-67
2022/05/04 03:39:29;;;;;;;0.40;0.22;;;8.40;99.90;;;;;;4990457;28;20402;-67
2022/05/04 03:41:55;;;;;;;0.40;0.30;;;8.30;99.90;;;;;;4984690;28;20494;-68
2022/05/04 03:44:22;;;;;;;0.40;0.20;;;8.40;99.90;;;;;;4977564;28;20425;-67
2022/05/04 03:46:49;;;;;;;0.40;0.20;;;8.50;99.90;;;;;;4982182;28;20408;-68
2022/05/04 03:49:17;;;;;;;0.40;0.40;;;8.40;99.90;;;;;;4986006;28;20430;-68
2022/05/04 03:51:43;;;;;;;0.40;0.20;;;8.40;99.90;;;;;;4986809;28;20394;-68
2022/05/04 03:54:10;;;;;;;0.40;0.20;;;8.40;99.90;;;;;;4989559;28;20894;-66
2022/05/04 03:56:36;;;;;;;0.40;0.20;;;8.40;99.90;;;;;;4995865;28;20439;-69
2022/05/04 03:59:03;;;;;;;0.40;0.20;;;8.40;99.90;;;;;;4986674;28;20422;-69
2022/05/04 04:01:29;;;;;;;0.40;0.20;;;8.40;99.90;;;;;;4980980;28;20402;-68
2022/05/04 04:03:55;;;;;;;0.40;0.20;;;8.40;99.90;;;;;;4990879;28;20897;-68
2022/05/04 04:06:21;;;;;;;0.40;0.20;;;8.50;99.90;;;;;;4992186;28;20867;-68
2022/05/04 04:08:48;;;;;;;0.40;0.20;;;8.60;99.90;;;;;;5004635;28;20936;-70
2022/05/04 04:11:14;;;;;;;0.40;0.30;;;8.40;99.90;;;;;;5001492;28;20398;-69
2022/05/04 04:13:40;;;;;;;0.40;0.20;;;8.50;99.90;;;;;;4981531;28;20387;-69
2022/05/04 04:16:05;;;;;;;0.40;0.20;;;8.50;99.90;;;;;;4987187;28;20453;-69
2022/05/04 04:18:31;;;;;;;0.40;0.20;;;8.60;99.90;;;;;;4990005;28;20588;-69
2022/05/04 04:23:41;;;;;;;0.50;0.50;;;8.50;99.90;;;;;;4990956;28;20482;-69
2022/05/04 04:26:08;;;;;;;0.40;0.20;;;8.60;99.90;;;;;;4991231;28;20855;-69
2022/05/04 04:28:35;;;;;;;0.40;0.40;;;8.70;99.90;;;;;;4990481;28;20492;-68
2022/05/04 04:31:02;;;;;;;0.40;0.20;;;8.70;99.90;;;;;;4990382;28;20395;-69
2022/05/04 04:33:29;;;;;;;0.40;0.28;;;8.70;99.90;;;;;;4993077;28;20605;-69
2022/05/04 04:35:55;;;;;;;0.40;0.20;;;8.80;99.90;;;;;;4999048;28;20474;-68
2022/05/04 04:38:21;;;;;;;0.40;0.20;;;8.70;99.90;;;;;;4982811;28;20450;-66
2022/05/04 04:40:47;;;;;;;0.40;0.20;;;8.80;99.90;;;;;;4990285;28;20441;-67
2022/05/04 04:43:14;;;;;;;0.40;0.20;;;8.80;99.90;;;;;;4985556;28;20485;-68
2022/05/04 04:45:41;;;;;;;0.40;0.20;;;8.80;99.90;;;;;;5000874;28;20769;-69
2022/05/04 04:48:06;;;;;;;0.40;0.20;;;9.00;99.90;;;;;;4990473;28;20445;-68
2022/05/04 04:50:32;;;;;;;0.40;0.40;;;9.00;99.90;;;;;;4989784;28;20383;-68
2022/05/04 04:52:58;;;;;;;0.40;0.40;;;9.10;99.90;;;;;;4989794;28;20818;-70
2022/05/04 04:55:23;;;;;;;0.40;0.30;;;8.90;99.90;;;;;;4988939;28;20442;-70
2022/05/04 04:57:49;;;;;;;0.40;0.20;;;8.90;99.90;;;;;;4989409;28;20405;-70
2022/05/04 05:00:15;;;;;;;0.40;0.30;;;8.90;99.90;;;;;;4987304;28;20829;-68
2022/05/04 05:02:44;;;;;;;0.40;0.30;;;8.90;99.90;;;;;;4990126;28;20488;-69
2022/05/04 05:05:10;;;;;;;0.60;0.60;;;9.00;99.90;;;;;;4994006;28;20379;-69
2022/05/04 05:07:36;;;;;;;0.40;0.20;;;9.00;99.90;;;;;;4975976;28;20401;-69
2022/05/04 05:10:02;;;;;;;0.40;0.20;;;9.10;99.90;;;;;;4992240;28;20410;-69
2022/05/04 05:12:28;;;;;;;0.40;0.40;;;9.10;99.90;;;;;;4989552;28;20398;-69
2022/05/04 05:17:38;;;;;;;0.40;0.40;;;9.00;99.90;;;;;;5011941;28;20439;-70
2022/05/04 05:20:04;;;;;;;0.40;0.40;;;9.10;99.90;;;;;;4993499;28;20413;-69
2022/05/04 05:22:30;;;;;;;0.40;0.20;;;9.10;99.90;;;;;;4995527;28;20418;-70
2022/05/04 05:24:56;;;;;;;0.40;0.20;;;9.20;99.90;;;;;;4989658;28;20459;-69
2022/05/04 05:27:22;;;;;;;0.50;0.50;;;9.20;99.90;;;;;;4992185;28;20391;-69
2022/05/04 05:29:49;;;;;;;0.40;0.30;;;9.30;99.90;;;;;;4995020;28;20405;-69
2022/05/04 05:32:15;;;;;;;0.40;0.30;;;9.40;99.90;;;;;;4990392;28;20402;-69
2022/05/04 05:34:40;;;;;;;0.40;0.20;;;9.40;99.90;;;;;;4992641;28;20441;-68
2022/05/04 05:37:06;;;;;;;0.40;0.20;;;9.50;99.90;;;;;;5001345;28;20753;-69
2022/05/04 05:39:33;;;;;;;0.40;0.30;;;9.50;99.90;;;;;;4979582;28;21041;-68
2022/05/04 05:41:59;;;;;;;0.40;0.20;;;9.60;99.90;;;;;;4990580;28;20901;-69
2022/05/04 05:44:25;;;;;;;0.40;0.20;;;9.70;99.90;;;;;;4992502;28;20485;-66
2022/05/04 05:46:51;;;;;;;0.40;0.20;;;9.80;99.90;;;;;;4996016;28;20401;-67
2022/05/04 05:49:17;;;;;;;0.40;0.27;;;9.90;99.90;;;;;;4994269;28;20409;-67
2022/05/04 05:51:43;;;;;;;0.40;0.20;;;9.90;99.90;;;;;;5012271;28;20393;-67
2022/05/04 05:54:08;;;;;;;0.40;0.20;;;10.00;99.90;;;;;;5012860;28;20385;-68
2022/05/04 05:56:34;;;;;;;0.40;0.20;;;10.20;99.90;;;;;;4994748;28;21030;-68
2022/05/04 05:59:10;;;;;;;0.40;0.27;;;10.30;99.90;;;;;;4993735;28;20419;-69
2022/05/04 06:01:36;;;;;;;0.40;0.20;;;10.40;99.90;;;;;;4965841;28;21028;-68
2022/05/04 06:04:01;;;;;;;0.40;0.30;;;10.40;99.90;;;;;;4973532;28;20475;-68
2022/05/04 06:06:30;;;;;;;0.40;0.30;;;10.50;99.90;;;;;;4973112;28;20396;-68
2022/05/04 06:08:56;;;;;;;0.40;0.30;;;10.40;99.90;;;;;;4974900;28;20916;-68
2022/05/04 06:11:21;;;;;;;0.40;0.20;;;10.50;99.90;;;;;;4991941;28;20410;-68
2022/05/04 06:13:54;;;;;;;0.40;0.30;;;10.60;99.90;;;;;;4992902;28;20379;-69
2022/05/04 06:16:20;;;;;;;0.40;0.20;;;10.70;99.90;;;;;;4985976;28;20455;-68
2022/05/04 06:18:46;;;;;;;0.40;0.30;;;10.80;99.90;;;;;;4987822;28;20408;-69
2022/05/04 06:21:12;;;;;;;0.40;0.20;;;10.80;99.90;;;;;;4988584;28;20422;-68
2022/05/04 06:23:39;;;;;;;0.40;0.20;;;10.90;99.90;;;;;;4991465;28;20410;-69
2022/05/04 06:26:05;;;;;;;0.40;0.20;;;11.00;99.90;;;;;;4992411;28;20411;-69
2022/05/04 06:28:31;;;;;;;0.40;0.20;;;10.90;99.90;;;;;;4991119;28;20437;-68
2022/05/04 06:36:31;;;;;;;0.60;0.60;;;11.30;99.90;;;;;;4991822;28;20387;-69
2022/05/04 06:38:57;;;;;;;0.40;0.20;;;11.40;99.90;;;;;;4991108;28;20425;-69
2022/05/04 06:41:23;;;;;;;0.40;0.20;;;11.60;99.90;;;;;;4991574;28;20732;-68
2022/05/04 06:43:49;;;;;;;0.90;0.90;;;11.50;99.90;;;;;;4990640;28;20413;-69
2022/05/04 06:46:15;;;;;;;0.50;0.50;;;11.50;99.90;;;;;;4986839;28;20468;-69
2022/05/04 06:48:41;;;;;;;0.40;0.20;;;11.60;99.90;;;;;;4988438;28;20399;-68
2022/05/04 06:51:09;;;;;;;0.80;0.80;;;11.60;99.90;;;;;;4988267;28;20379;-69
2022/05/04 06:53:34;;;;;;;0.40;0.30;;;11.80;99.90;;;;;;4982849;28;20734;-69
2022/05/04 06:56:01;;;;;;;0.70;0.70;;;12.00;99.90;;;;;;4991075;28;20432;-68
2022/05/04 06:58:26;;;;;;;0.40;0.20;;;12.00;99.90;;;;;;4988338;28;20988;-69
2022/05/04 07:00:52;;;;;;;0.40;0.20;;;12.10;99.90;;;;;;4984903;28;20447;-67
2022/05/04 07:03:19;;;;;;;0.40;0.30;;;12.20;99.90;;;;;;4978662;28;20452;-68
2022/05/04 07:05:45;;;;;;;1.70;0.70;;;12.30;99.90;;;;;;4986805;28;20403;-69
2022/05/04 07:08:20;;;;;;;0.40;0.30;;;12.30;99.90;;;;;;4991336;28;20405;-69
2022/05/04 07:10:46;;;;;;;0.40;0.20;;;12.50;99.90;;;;;;4991582;28;20886;-69
2022/05/04 07:13:12;;;;;;;0.40;0.30;;;12.60;99.90;;;;;;4991855;28;20390;-69
2022/05/04 07:15:38;;;;;;;0.70;0.70;;;12.80;99.90;;;;;;4989889;28;20402;-69
2022/05/04 07:18:04;;;;;;;0.40;0.20;;;13.00;99.90;;;;;;4991293;28;20422;-69
2022/05/04 07:20:30;;;;;;;0.40;0.20;;;13.00;99.90;;;;;;4990858;28;20489;-69
2022/05/04 07:22:56;;;;;;;0.40;0.20;;;13.20;99.90;;;;;;4991672;28;20390;-69
2022/05/04 07:25:22;;;;;;;0.40;0.20;;;13.40;99.90;;;;;;4990106;28;20410;-69
2022/05/04 07:27:48;;;;;;;0.40;0.30;;;13.40;99.90;;;;;;4991045;28;20395;-69
2022/05/04 07:30:14;;;;;;;0.60;0.60;;;13.50;99.90;;;;;;4991207;28;20969;-69
2022/05/04 07:32:40;;;;;;;0.40;0.20;;;13.60;99.90;;;;;;4989685;28;20953;-69
2022/05/04 07:35:08;;;;;;;0.80;0.60;;;13.70;99.90;;;;;;4991636;28;20445;-68
2022/05/04 07:37:34;;;;;;;0.40;0.30;;;13.70;99.90;;;;;;4990794;28;20390;-69
2022/05/04 07:42:44;;;;;;;0.40;0.30;;;13.80;99.90;;;;;;4990944;28;20433;-68
2022/05/04 07:45:15;;;;;;;0.40;0.20;;;13.80;99.90;;;;;;4990993;28;20434;-69
2022/05/04 07:47:41;;;;;;;0.40;0.30;;;13.90;99.90;;;;;;4989925;28;20394;-69
2022/05/04 07:50:09;;;;;;;0.40;0.20;;;14.00;99.90;;;;;;4990074;28;20815;-69
2022/05/04 07:52:35;;;;;;;0.40;0.30;;;14.10;99.90;;;;;;4990066;28;20874;-69
2022/05/04 07:55:02;;;;;;;0.40;0.20;;;14.20;99.90;;;;;;4989644;28;20418;-69
2022/05/04 07:57:28;;;;;;;0.40;0.30;;;14.30;99.90;;;;;;4993458;28;20401;-69
2022/05/04 08:05:30;;;;;;;0.40;0.30;;;14.30;99.90;;;;;;4990652;28;20512;-69
2022/05/04 08:07:56;;;;;;;0.40;0.40;;;14.30;99.90;;;;;;4991182;28;20390;-69
2022/05/04 08:10:21;;;;;;;0.90;0.80;;;14.30;99.90;;;;;;4985930;28;20883;-69
2022/05/04 08:12:47;;;;;;;0.40;0.30;;;14.20;99.90;;;;;;4973389;28;20746;-69
2022/05/04 08:15:13;;;;;;;0.40;0.20;;;14.20;99.90;;;;;;4989344;28;20811;-69
2022/05/04 08:17:39;;;;;;;0.60;0.60;;;14.30;99.90;;;;;;4991360;28;20458;-69
2022/05/04 08:20:06;;;;;;;0.40;0.40;;;14.50;99.90;;;;;;4998383;28;20417;-68
2022/05/04 08:22:31;;;;;;;0.40;0.30;;;14.60;99.90;;;;;;4992856;28;20405;-68
2022/05/04 08:24:58;;;;;;;0.40;0.20;;;14.70;99.90;;;;;;4991465;28;20410;-68
2022/05/04 08:27:24;;;;;;;0.50;0.50;;;14.90;99.90;;;;;;4989928;28;20748;-67
2022/05/04 08:29:52;;;;;;;2.53;1.83;;;15.10;99.90;;;;;;4993943;28;20460;-67
2022/05/04 08:32:18;;;;;;;0.40;0.20;;;15.30;99.90;;;;;;4992055;28;20407;-67
2022/05/04 08:34:44;;;;;;;0.40;0.20;;;15.40;99.90;;;;;;5010015;28;20388;-68
2022/05/04 08:37:10;;;;;;;0.40;0.23;;;15.50;99.90;;;;;;5010636;28;20393;-68
2022/05/04 08:39:36;;;;;;;0.40;0.20;;;15.80;99.90;;;;;;5001871;28;20406;-67
2022/05/04 08:42:02;;;;;;;0.40;0.20;;;15.90;99.90;;;;;;4995044;28;20430;-68
2022/05/04 08:44:28;;;;;;;1.30;0.90;;;15.90;99.90;;;;;;4994003;28;20395;-68
2022/05/04 08:46:59;;;;;;;0.40;0.20;;;16.10;99.90;;;;;;4995009;28;20379;-68
2022/05/04 08:49:30;;;;;;;0.40;0.40;;;16.30;99.90;;;;;;4994004;28;20513;-68
2022/05/04 08:51:59;;;;;;;0.90;0.90;;;16.30;99.90;;;;;;4994718;28;20847;-68
2022/05/04 08:54:26;;;;;;;0.40;0.30;;;16.30;99.90;;;;;;4993422;28;20410;-69
2022/05/04 08:56:52;;;;;;;0.40;0.30;;;16.40;99.90;;;;;;4994361;28;20390;-68
2022/05/04 08:59:17;;;;;;;0.40;0.20;;;16.40;99.90;;;;;;4994497;28;20437;-69
2022/05/04 09:01:46;;;;;;;0.40;0.30;;;16.30;99.90;;;;;;4994220;28;20395;-68
2022/05/04 09:04:12;;;;;;;0.40;0.30;;;16.30;99.90;;;;;;4993595;28;20473;-69
2022/05/04 09:06:44;;;;;;;0.50;0.40;;;16.50;99.90;;;;;;4992859;28;20978;-68
2022/05/04 09:09:13;;;;;;;0.40;0.30;;;16.50;99.90;;;;;;4994422;28;20391;-68
2022/05/04 09:11:44;;;;;;;0.40;0.30;;;16.50;99.90;;;;;;4993353;28;20450;-68
2022/05/04 09:14:15;;;;;;;0.40;0.20;;;16.40;99.90;;;;;;4994042;28;20937;-68
2022/05/04 09:16:42;;;;;;;0.60;0.60;;;16.60;99.90;;;;;;4992796;28;20478;-68
2022/05/04 09:19:12;;;;;;;0.40;0.30;;;16.70;99.90;;;;;;4989808;28;20421;-67
2022/05/04 09:21:39;;;;;;;0.60;0.60;;;16.80;99.90;;;;;;4990735;28;20413;-67
2022/05/04 09:24:06;;;;;;;0.40;0.27;;;16.80;99.90;;;;;;4993022;28;20406;-68
2022/05/04 09:26:37;;;;;;;0.40;0.20;;;16.90;99.90;;;;;;4990505;28;20401;-69
2022/05/04 09:29:06;;;;;;;0.40;0.30;;;16.90;99.90;;;;;;5002754;28;20447;-67
2022/05/04 09:31:32;;;;;;;0.40;0.20;;;17.00;99.90;;;;;;5002014;28;20461;-68
2022/05/04 09:34:03;;;;;;;0.40;0.30;;;16.90;99.90;;;;;;4992619;28;20399;-68
2022/05/04 09:44:54;;;;;;;0.70;0.70;;;17.20;99.90;;;;;;4993065;28;20397;-68
2022/05/04 09:45:10;;;;;;;0.80;0.80;;;17.20;99.90;;;;;;5012952;28;20440;-69
2022/05/04 09:47:46;;;;;;;0.60;0.60;;;17.40;99.90;;;;;;5000130;28;20390;-69
2022/05/04 09:50:14;;;;;;;0.40;0.40;;;17.40;99.80;;;;;;4993188;28;20751;-69
2022/05/04 09:52:50;;;;;;;0.40;0.30;;;17.50;99.20;;;;;;4992096;28;20398;-68
2022/05/04 09:55:54;;;;;;;0.60;0.40;;;17.60;99.90;;;;;;4991957;28;20430;-68
2022/05/04 09:58:20;;;;;;;0.40;0.30;;;17.50;99.20;;;;;;4993146;28;20945;-69
2022/05/04 10:00:51;;;;;;;0.40;0.20;;;17.50;98.50;;;;;;4990079;28;20414;-68
2022/05/04 10:03:19;;;;;;;0.40;0.30;;;17.60;99.90;;;;;;4996070;28;20400;-69
2022/05/04 10:05:49;;;;;;;0.40;0.30;;;17.60;99.30;;;;;;4996625;28;20440;-70
2022/05/04 10:08:15;;;;;;;0.70;0.70;;;17.70;99.90;;;;;;4989722;28;20541;-69
2022/05/04 10:10:42;;;;;;;0.50;0.50;;;17.70;98.10;;;;;;4983647;28;20424;-70
2022/05/04 10:13:09;;;;;;;0.40;0.20;;;17.90;97.90;;;;;;4979499;28;20414;-69
2022/05/04 10:15:37;;;;;;;0.80;0.80;;;17.90;96.40;;;;;;4988017;28;20404;-69
2022/05/04 10:18:14;;;;;;;0.40;0.20;;;17.90;97.60;;;;;;4999327;28;20801;-68
2022/05/04 10:20:44;;;;;;;0.50;0.50;;;18.00;96.00;;;;;;4996974;28;20420;-68
2022/05/04 10:23:20;;;;;;;0.40;0.20;;;18.10;95.80;;;;;;4992237;28;20560;-69
2022/05/04 10:25:46;;;;;;;0.40;0.30;;;18.00;96.70;;;;;;4990656;28;20433;-69
2022/05/04 10:28:14;;;;;;;0.40;0.30;;;18.20;95.90;;;;;;4973370;28;20396;-70
2022/05/04 10:30:59;;;;;;;0.40;0.30;;;18.30;95.00;;;;;;4975178;28;20422;-70
2022/05/04 10:33:28;;;;;;;1.10;1.00;;;18.60;95.30;;;;;;4993532;28;20424;-69
2022/05/04 10:35:54;;;;;;;0.40;0.20;;;18.90;94.70;;;;;;4988438;28;20580;-69
2022/05/04 10:38:35;;;;;;;0.50;0.50;;;18.80;93.30;;;;;;4981537;28;20498;-69
2022/05/04 10:41:06;;;;;;;0.40;0.30;;;18.90;91.10;;;;;;4971181;28;20457;-70
2022/05/04 10:43:47;;;;;;;0.70;0.70;;;18.80;91.20;;;;;;4975625;28;20511;-68
2022/05/04 10:46:23;;;;;;;0.40;0.20;;;18.90;89.90;;;;;;4960717;28;20459;-69
2022/05/04 10:49:05;;;;;;;0.40;0.30;;;19.20;91.00;;;;;;5000879;28;21327;-68
2022/05/04 10:51:38;;;;;;;0.70;0.70;;;19.00;90.60;;;;;;4972570;28;20405;-68
2022/05/04 10:54:08;;;;;;;0.50;0.50;;;19.30;89.80;;;;;;4980087;28;20733;-68
2022/05/04 10:56:41;;;;;;;0.40;0.30;;;19.40;90.00;;;;;;4988818;28;20446;-69
2022/05/04 10:59:07;;;;;;;0.40;0.20;;;19.30;90.70;;;;;;4986351;28;20524;-69
2022/05/04 11:01:44;;;;;;;0.93;0.80;;;19.50;89.70;;;;;;4980798;28;20919;-70
2022/05/04 11:04:10;;;;;;;0.40;0.30;;;19.60;87.30;;;;;;4992428;28;21378;-67
2022/05/04 11:06:38;;;;;;;0.40;0.20;;;19.60;80.00;;;;;;4996055;28;20455;-68
2022/05/04 11:09:17;;;;;;;0.40;0.30;;;19.90;81.50;;;;;;5010600;28;20459;-68
2022/05/04 11:11:51;;;;;;;0.40;0.20;;;19.90;83.10;;;;;;5001154;28;20397;-68
2022/05/04 11:14:19;;;;;;;0.40;0.30;;;20.00;79.90;;;;;;4971550;28;20474;-68
2022/05/04 11:16:45;;;;;;;0.40;0.20;;;20.00;81.10;;;;;;4978461;28;20397;-68
2022/05/04 11:19:21;;;;;;;0.70;0.70;;;20.40;78.50;;;;;;4991693;28;20446;-68
2022/05/04 11:21:50;;;;;;;0.40;0.30;;;20.70;77.70;;;;;;4991121;28;20382;-69
2022/05/04 11:24:17;;;;;;;0.52;0.52;;;20.40;76.70;;;;;;4991703;28;20391;-68
2022/05/04 11:26:46;;;;;;;0.40;0.30;;;20.60;75.50;;;;;;4991098;28;20379;-68
2022/05/04 11:29:16;;;;;;;0.40;0.20;;;21.20;75.80;;;;;;4991390;28;20403;-68
2022/05/04 11:31:59;;;;;;;0.40;0.40;;;20.00;76.40;;;;;;4991005;28;20393;-69
2022/05/04 11:34:32;;;;;;;0.40;0.30;;;19.90;79.60;;;;;;4977980;28;20428;-68
2022/05/04 11:37:02;;;;;;;0.40;0.20;;;20.00;78.20;;;;;;5010744;28;20388;-68
2022/05/04 11:39:29;;;;;;;0.50;0.40;;;21.50;76.40;;;;;;4972045;28;20420;-69
2022/05/04 11:41:59;;;;;;;0.40;0.30;;;22.50;69.80;;;;;;4996480;28;21093;-69
2022/05/04 11:44:27;;;;;;;0.40;0.30;;;22.50;71.30;;;;;;4998565;28;20408;-68
2022/05/04 11:47:01;;;;;;;0.40;0.30;;;21.70;69.00;;;;;;4987691;28;21245;-69
2022/05/04 11:49:30;;;;;;;0.40;0.30;;;22.60;67.40;;;;;;5002030;28;20912;-70
2022/05/04 11:51:57;;;;;;;0.40;0.20;;;23.50;70.40;;;;;;5004770;28;20383;-70
2022/05/04 11:54:23;;;;;;;0.40;0.20;;;23.60;64.30;;;;;;4991207;28;20720;-68
2022/05/04 11:56:50;;;;;;;0.40;0.30;;;23.30;61.90;;;;;;4990818;28;20772;-70
2022/05/04 11:59:16;;;;;;;0.52;0.25;;;22.80;62.40;;;;;;5000063;28;20421;-68
2022/05/04 12:01:42;;;;;;;0.40;0.20;;;22.70;63.00;;;;;;4983143;28;20878;-69
2022/05/04 12:04:10;;;;;;;0.40;0.30;;;21.40;68.90;;;;;;4995374;28;20910;-68
2022/05/04 12:06:37;;;;;;;0.40;0.30;;;22.10;68.40;;;;;;5000763;28;20401;-67
2022/05/04 12:09:04;;;;;;;0.40;0.30;;;21.90;67.80;;;;;;5010046;28;20508;-67
2022/05/04 12:11:31;;;;;;;0.40;0.30;;;21.50;68.70;;;;;;5011962;28;20829;-66
2022/05/04 12:13:58;;;;;;;0.40;0.30;;;21.50;68.40;;;;;;5013080;28;20479;-66
2022/05/04 12:16:27;;;;;;;0.40;0.20;;;22.70;66.90;;;;;;5013725;28;20412;-65
2022/05/04 12:18:53;;;;;;;0.40;0.30;;;21.90;65.50;;;;;;5001708;28;20997;-66
2022/05/04 12:21:20;;;;;;;0.40;0.30;;;22.70;64.00;;;;;;4994114;28;20922;-66
2022/05/04 12:23:48;;;;;;;0.40;0.20;;;23.20;63.30;;;;;;4991477;28;20553;-67
2022/05/04 12:26:15;;;;;;;0.50;0.40;;;23.60;63.30;;;;;;4990909;28;20446;-67
2022/05/04 12:28:42;;;;;;;0.50;0.40;;;23.00;64.30;;;;;;4994943;28;20398;-68
2022/05/04 12:33:56;;;;;;;0.63;0.50;;;22.80;61.90;;;;;;4991881;28;20906;-66
2022/05/04 12:36:26;;;;;;;0.50;0.30;;;24.50;59.30;;;;;;4991513;28;20395;-67
2022/05/04 12:38:53;;;;;;;0.50;0.40;;;24.10;59.80;;;;;;4977325;28;20404;-66
2022/05/04 12:41:25;;;;;;;0.70;0.60;;;22.50;63.80;;;;;;4981123;28;20430;-67
2022/05/04 12:43:51;;;;;;;0.50;0.30;;;21.30;67.90;;;;;;5006573;28;20387;-67
2022/05/04 12:46:19;;;;;;;0.40;0.20;;;20.40;72.70;;;;;;4990407;28;20822;-66
2022/05/04 12:48:48;;;;;;;0.50;0.40;;;20.10;74.60;;;;;;4995255;28;20398;-67
2022/05/04 12:51:19;;;;;;;0.40;0.30;;;20.10;75.40;;;;;;4988554;28;20741;-66
2022/05/04 12:53:47;;;;;;;0.40;0.30;;;20.10;73.60;;;;;;4996117;28;20402;-68
2022/05/04 12:59:00;;;;;;;0.40;0.20;;;20.50;70.40;;;;;;4992777;28;20500;-71
2022/05/04 13:01:27;;;;;;;0.40;0.20;;;20.30;70.40;;;;;;5001444;28;20404;-69
2022/05/04 13:03:53;;;;;;;0.40;0.30;;;21.00;69.40;;;;;;4999685;28;20478;-68
2022/05/04 13:06:20;;;;;;;0.40;0.30;;;21.00;70.40;;;;;;4997562;28;20843;-70
2022/05/04 13:08:49;;;;;;;0.40;0.20;;;21.80;64.90;;;;;;4988274;28;20822;-68
2022/05/04 13:11:16;;;;;;;0.40;0.20;;;21.30;62.70;;;;;;4976888;28;20814;-69
2022/05/04 13:13:42;;;;;;;0.40;0.30;;;21.10;62.70;;;;;;4991478;28;20403;-69
2022/05/04 13:16:08;;;;;;;0.40;0.20;;;20.80;61.10;;;;;;4990112;28;20402;-68
2022/05/04 13:18:34;;;;;;;0.40;0.20;;;20.90;61.50;;;;;;4997603;28;20924;-69
2022/05/04 13:21:00;;;;;;;0.40;0.30;;;21.20;61.30;;;;;;4992399;28;20414;-67
2022/05/04 13:23:26;;;;;;;0.40;0.30;;;21.00;58.50;;;;;;4999279;28;20461;-69
2022/05/04 13:25:52;;;;;;;0.40;0.20;;;21.50;58.20;;;;;;4999023;28;20550;-69
2022/05/04 13:28:18;;;;;;;0.40;0.20;;;21.50;58.80;;;;;;5001715;28;20384;-71